createdAt,value
2023-05-18T00:04:04.390Z,7.90
2023-05-18T00:09:06.186Z,7.80
2023-05-18T00:14:08.285Z,7.80
2023-05-18T00:19:15.643Z,7.80
2023-05-18T00:24:17.555Z,7.80
2023-05-18T00:29:19.299Z,7.80
2023-05-18T00:34:21.231Z,7.60
2023-05-18T00:39:22.976Z,7.70
2023-05-18T00:44:24.841Z,7.60
2023-05-18T00:49:26.962Z,7.70
2023-05-18T00:54:28.668Z,7.60
2023-05-18T00:59:30.686Z,7.50
2023-05-18T01:04:32.375Z,7.50
2023-05-18T01:09:34.682Z,7.10
2023-05-18T01:14:45.660Z,7.10
2023-05-18T01:20:00.192Z,6.90
2023-05-18T01:25:10.766Z,6.90
2023-05-18T01:30:16.173Z,6.70
2023-05-18T01:35:17.779Z,6.70
2023-05-18T01:40:19.551Z,6.90
2023-05-18T01:45:24.910Z,6.80
2023-05-18T01:50:31.323Z,6.50
2023-05-18T01:55:33.244Z,6.30
2023-05-18T02:00:35.553Z,6.50
2023-05-18T02:05:37.387Z,6.20
2023-05-18T02:10:39.044Z,5.90
2023-05-18T02:15:40.987Z,6.10
2023-05-18T02:20:42.902Z,5.90
2023-05-18T02:25:44.565Z,6.00
2023-05-18T02:30:46.349Z,5.90
2023-05-18T02:35:48.043Z,6.00
2023-05-18T02:40:49.796Z,6.00
2023-05-18T02:45:51.489Z,5.70
2023-05-18T02:50:53.850Z,5.90
2023-05-18T02:55:58.582Z,5.70
2023-05-18T03:01:00.456Z,5.70
2023-05-18T03:06:05.450Z,5.60
2023-05-18T03:11:07.115Z,5.60
2023-05-18T03:16:08.915Z,5.50
2023-05-18T03:21:13.539Z,5.40
2023-05-18T03:26:16.708Z,5.40
2023-05-18T03:31:18.429Z,5.10
2023-05-18T03:36:22.447Z,5.10
2023-05-18T03:41:24.223Z,5.30
2023-05-18T03:46:25.972Z,5.20
2023-05-18T03:51:29.099Z,5.20
2023-05-18T03:56:31.673Z,5.20
2023-05-18T04:01:33.849Z,5.20
2023-05-18T04:06:35.532Z,5.10
2023-05-18T04:11:37.192Z,5.20
2023-05-18T04:16:38.972Z,5.00
2023-05-18T04:21:43.557Z,5.20
2023-05-18T04:26:46.545Z,5.20
2023-05-18T04:31:48.816Z,5.10
2023-05-18T04:36:50.545Z,5.10
2023-05-18T04:41:58.550Z,5.30
2023-05-18T04:47:00.501Z,5.50
2023-05-18T04:52:02.202Z,5.40
2023-05-18T04:57:04.202Z,5.50
2023-05-18T05:02:05.937Z,5.70
2023-05-18T05:07:07.619Z,5.80
2023-05-18T05:12:09.622Z,5.90
2023-05-18T05:17:12.602Z,6.10
2023-05-18T05:22:14.706Z,6.10
2023-05-18T05:27:17.424Z,6.20
2023-05-18T05:32:19.174Z,6.40
2023-05-18T05:37:22.043Z,6.60
2023-05-18T05:42:25.472Z,6.70
2023-05-18T05:47:28.256Z,6.90
2023-05-18T05:52:30.073Z,7.00
2023-05-18T05:57:31.790Z,7.10
2023-05-18T06:02:34.296Z,7.30
2023-05-18T06:07:36.569Z,7.30
2023-05-18T06:12:38.269Z,7.50
2023-05-18T06:17:40.170Z,7.60
2023-05-18T06:22:41.951Z,7.80
2023-05-18T06:27:44.443Z,7.90
2023-05-18T06:32:46.149Z,8.10
2023-05-18T06:37:47.876Z,8.40
2023-05-18T06:42:49.652Z,8.50
2023-05-18T06:47:51.433Z,8.60
2023-05-18T06:52:53.411Z,8.60
2023-05-18T06:57:58.357Z,8.80
2023-05-18T07:03:00.260Z,8.80
2023-05-18T07:08:03.313Z,9.10
2023-05-18T07:13:05.148Z,9.20
2023-05-18T07:18:06.893Z,9.30
2023-05-18T07:23:08.654Z,9.40
2023-05-18T07:28:10.567Z,9.40
2023-05-18T07:33:12.332Z,9.70
2023-05-18T07:38:14.067Z,10.00
2023-05-18T07:43:15.765Z,9.80
2023-05-18T07:48:17.630Z,10.00
2023-05-18T07:53:19.329Z,10.10
2023-05-18T07:58:21.060Z,10.30
2023-05-18T08:03:22.839Z,10.30
2023-05-18T08:08:24.558Z,10.70
2023-05-18T08:13:26.724Z,10.50
2023-05-18T08:18:28.528Z,11.00
2023-05-18T08:23:30.506Z,11.20
2023-05-18T08:28:32.373Z,11.10
2023-05-18T08:33:34.307Z,11.30
2023-05-18T08:38:36.078Z,11.40
2023-05-18T08:43:38.560Z,11.70
2023-05-18T08:48:42.670Z,11.70
2023-05-18T08:53:44.898Z,11.90
2023-05-18T08:58:48.461Z,12.20
2023-05-18T09:03:50.644Z,12.30
2023-05-18T09:08:57.637Z,12.20
2023-05-18T09:13:59.972Z,12.40
2023-05-18T09:19:01.957Z,12.70
2023-05-18T09:24:03.789Z,12.80
2023-05-18T09:29:17.086Z,12.90
2023-05-18T09:34:19.366Z,12.90
2023-05-18T09:39:21.346Z,13.60
2023-05-18T09:44:33.884Z,13.60
2023-05-18T09:49:35.853Z,13.80
2023-05-18T09:54:37.847Z,13.60
2023-05-18T09:59:39.537Z,14.10
2023-05-18T10:04:42.500Z,13.90
2023-05-18T10:09:45.229Z,14.20
2023-05-18T10:14:46.994Z,14.10
2023-05-18T10:19:51.394Z,14.10
2023-05-18T10:24:53.180Z,14.50
2023-05-18T10:29:58.204Z,14.80
2023-05-18T10:34:59.959Z,14.70
2023-05-18T10:40:03.069Z,14.80
2023-05-18T10:45:06.258Z,15.00
2023-05-18T10:50:08.623Z,14.90
2023-05-18T10:55:10.543Z,15.20
2023-05-18T11:00:12.429Z,15.50
2023-05-18T11:05:14.297Z,15.30
2023-05-18T11:10:16.210Z,15.30
2023-05-18T11:15:19.531Z,15.00
2023-05-18T11:20:25.027Z,15.40
2023-05-18T11:25:32.434Z,15.10
2023-05-18T11:30:34.293Z,15.70
2023-05-18T11:35:54.541Z,15.70
2023-05-18T11:40:58.251Z,15.40
2023-05-18T11:45:59.974Z,15.60
2023-05-18T11:51:01.650Z,16.10
2023-05-18T11:56:03.476Z,16.20
2023-05-18T12:01:06.710Z,16.20
2023-05-18T12:06:08.517Z,16.40
2023-05-18T12:11:10.454Z,16.60
2023-05-18T12:16:13.316Z,16.80
2023-05-18T12:21:16.993Z,17.00
2023-05-18T12:26:20.509Z,16.90
2023-05-18T12:31:22.619Z,17.10
2023-05-18T12:36:24.424Z,16.80
2023-05-18T12:41:29.128Z,17.20
2023-05-18T12:46:30.953Z,17.20
2023-05-18T12:51:33.688Z,17.50
2023-05-18T12:57:01.512Z,17.40
2023-05-18T13:02:04.230Z,17.40
2023-05-18T13:07:12.210Z,17.80
2023-05-18T13:12:13.899Z,18.00
2023-05-18T13:17:22.030Z,17.90
2023-05-18T13:22:23.771Z,17.50
2023-05-18T13:27:28.980Z,17.50
2023-05-18T13:32:33.308Z,17.90
2023-05-18T13:37:35.418Z,17.90
2023-05-18T13:42:37.219Z,18.30
2023-05-18T13:47:39.495Z,17.80
2023-05-18T13:52:41.200Z,18.10
2023-05-18T13:57:43.275Z,18.50
2023-05-18T14:02:45.106Z,18.30
2023-05-18T14:07:46.914Z,18.30
2023-05-18T14:12:48.950Z,18.40
2023-05-18T14:17:56.491Z,18.50
2023-05-18T14:23:00.258Z,18.30
2023-05-18T14:28:02.094Z,18.10
2023-05-18T14:33:04.149Z,18.00
2023-05-18T14:38:07.986Z,17.90
2023-05-18T14:43:10.669Z,18.40
2023-05-18T14:48:12.506Z,18.30
2023-05-18T14:53:16.149Z,18.20
2023-05-18T14:58:17.851Z,18.50
2023-05-18T15:03:21.671Z,18.40
2023-05-18T15:08:23.538Z,18.60
2023-05-18T15:13:26.261Z,18.70
2023-05-18T15:18:33.008Z,18.50
2023-05-18T15:23:34.716Z,18.60
2023-05-18T15:28:36.381Z,18.30
2023-05-18T15:33:42.373Z,18.70
2023-05-18T15:38:45.053Z,18.80
2023-05-18T15:43:46.800Z,18.50
2023-05-18T15:48:49.609Z,18.60
2023-05-18T15:53:51.263Z,18.40
2023-05-18T15:58:53.975Z,18.60
2023-05-18T16:03:55.687Z,18.60
2023-05-18T16:08:57.585Z,18.60
2023-05-18T16:14:00.433Z,18.90
2023-05-18T16:19:03.203Z,18.60
2023-05-18T16:24:05.633Z,18.60
2023-05-18T16:29:07.331Z,18.40
2023-05-18T16:34:08.981Z,18.40
2023-05-18T16:39:11.693Z,18.10
2023-05-18T16:44:14.389Z,18.10
2023-05-18T16:49:16.100Z,18.30
2023-05-18T16:54:17.766Z,18.30
2023-05-18T16:59:20.310Z,18.30
2023-05-18T17:04:24.061Z,18.40
2023-05-18T17:09:25.862Z,18.30
2023-05-18T17:14:27.568Z,18.10
2023-05-18T17:19:29.270Z,18.10
2023-05-18T17:24:31.260Z,18.00
2023-05-18T17:29:32.956Z,17.90
2023-05-18T17:34:34.737Z,17.70
2023-05-18T17:39:38.513Z,17.50
2023-05-18T17:44:41.351Z,17.40
2023-05-18T17:49:43.168Z,17.40
2023-05-18T17:54:44.889Z,17.40
2023-05-18T17:59:47.580Z,17.40
2023-05-18T18:04:49.329Z,17.30
2023-05-18T18:09:51.072Z,17.20
2023-05-18T18:14:53.823Z,17.10
2023-05-18T18:19:56.462Z,17.00
2023-05-18T18:24:58.331Z,16.90
2023-05-18T18:30:00.057Z,16.80
2023-05-18T18:35:07.100Z,16.70
2023-05-18T18:40:09.460Z,16.50
2023-05-18T18:45:12.253Z,16.40
2023-05-18T18:50:13.898Z,16.20
2023-05-18T18:55:17.086Z,16.10
2023-05-18T19:00:21.528Z,15.90
2023-05-18T19:05:25.335Z,15.80
2023-05-18T19:10:27.688Z,15.60
2023-05-18T19:15:29.827Z,15.40
2023-05-18T19:20:34.848Z,15.40
2023-05-18T19:25:36.541Z,15.20
2023-05-18T19:30:38.265Z,15.00
2023-05-18T19:35:40.100Z,14.80
2023-05-18T19:40:41.715Z,14.70
2023-05-18T19:45:43.552Z,14.50
2023-05-18T19:50:45.530Z,14.30
2023-05-18T19:55:48.797Z,14.10
2023-05-18T20:00:52.720Z,14.00
2023-05-18T20:05:55.447Z,13.80
2023-05-18T20:10:57.157Z,13.60
2023-05-18T20:15:59.047Z,13.50
2023-05-18T20:21:01.157Z,13.40
2023-05-18T20:26:02.924Z,13.30
2023-05-18T20:31:04.679Z,13.10
2023-05-18T20:36:06.717Z,13.00
2023-05-18T20:41:17.771Z,12.80
2023-05-18T20:46:23.807Z,12.70
2023-05-18T20:51:25.797Z,12.60
2023-05-18T20:56:29.421Z,12.60
2023-05-18T21:01:32.244Z,12.40
2023-05-18T21:06:34.521Z,12.40
2023-05-18T21:11:38.070Z,12.40
2023-05-18T21:16:40.449Z,12.30
2023-05-18T21:21:43.362Z,12.10
2023-05-18T21:26:45.027Z,12.10
2023-05-18T21:31:46.891Z,11.90
2023-05-18T21:36:48.621Z,11.70
2023-05-18T21:41:50.414Z,11.60
2023-05-18T21:46:55.333Z,11.60
2023-05-18T21:51:58.077Z,11.30
2023-05-18T21:56:59.872Z,11.20
2023-05-18T22:02:02.624Z,11.30
2023-05-18T22:07:04.965Z,10.90
2023-05-18T22:12:06.921Z,10.90
2023-05-18T22:17:08.769Z,10.90
2023-05-18T22:22:16.523Z,10.70
2023-05-18T22:27:22.236Z,10.60
2023-05-18T22:32:24.069Z,10.50
2023-05-18T22:37:26.207Z,10.50
2023-05-18T22:42:27.989Z,10.40
2023-05-18T22:47:30.160Z,10.30
2023-05-18T22:52:32.460Z,10.40
2023-05-18T22:57:34.227Z,10.20
2023-05-18T23:02:36.427Z,10.20
2023-05-18T23:07:38.425Z,10.10
2023-05-18T23:12:40.276Z,9.80
2023-05-18T23:17:42.298Z,9.90
2023-05-18T23:22:44.208Z,9.80
2023-05-18T23:27:46.912Z,9.70
2023-05-18T23:32:48.943Z,9.70
2023-05-18T23:37:53.648Z,9.60
2023-05-18T23:42:55.632Z,9.60
2023-05-18T23:47:57.670Z,9.70
2023-05-18T23:53:00.613Z,9.50
2023-05-18T23:58:02.620Z,9.50
